LBE weather

Arnold Palmer Regional Airport
Latrobe, Pennsylvania, United States

Public forecast

Using degrees Fahrenheit for public forecast. Weather courtesy of forecast.io.

METAR (pilot weather report)

Retrieved 2019/04/21 06:35 UTC (0 seconds ago):

KLBE 210635Z AUTO 20009KT 10SM SCT019 BKN026 OVC032 09/07 A2983 RMK AO2

TAF (pilot weather forecast)

Retrieved 2019/04/21 06:33 UTC (0 seconds ago):

TAF KLBE 210529Z 2106/2206 21004KT P6SM SCT025 FM210800 24007KT P6SM OVC025 FM211500 27008KT P6SM OVC050